sensor_id;sensor_type;location;lat;lon;timestamp;pressure;altitude;pressure_sealevel;temperature;humidity
71697;BME280;68167;59.120;37.898;2024-02-23T00:00:06;100100.00;;;-3.08;76.12
71697;BME280;68167;59.120;37.898;2024-02-23T00:02:33;100084.19;;;-3.23;76.22
71697;BME280;68167;59.120;37.898;2024-02-23T00:05:00;100114.00;;;-3.01;76.24
71697;BME280;68167;59.120;37.898;2024-02-23T00:07:26;100173.31;;;-2.71;76.09
71697;BME280;68167;59.120;37.898;2024-02-23T00:09:52;100153.44;;;-2.80;76.14
71697;BME280;68167;59.120;37.898;2024-02-23T00:12:19;100115.63;;;-3.08;75.76
71697;BME280;68167;59.120;37.898;2024-02-23T00:14:45;100192.00;;;-2.59;76.18
71697;BME280;68167;59.120;37.898;2024-02-23T00:17:11;100100.97;;;-3.17;76.02
71697;BME280;68167;59.120;37.898;2024-02-23T00:19:38;100148.38;;;-2.89;76.09
71697;BME280;68167;59.120;37.898;2024-02-23T00:22:04;100170.34;;;-2.76;76.44
71697;BME280;68167;59.120;37.898;2024-02-23T00:24:30;100182.91;;;-2.63;76.13
71697;BME280;68167;59.120;37.898;2024-02-23T00:26:57;100102.59;;;-3.16;76.26
71697;BME280;68167;59.120;37.898;2024-02-23T00:29:23;100141.84;;;-2.93;76.38
71697;BME280;68167;59.120;37.898;2024-02-23T00:31:49;100186.50;;;-2.64;76.23
71697;BME280;68167;59.120;37.898;2024-02-23T00:34:16;100093.00;;;-3.16;76.13
71697;BME280;68167;59.120;37.898;2024-02-23T00:36:42;100188.59;;;-2.68;76.18
71697;BME280;68167;59.120;37.898;2024-02-23T00:39:10;100092.66;;;-3.21;75.54
71697;BME280;68167;59.120;37.898;2024-02-23T00:41:37;100184.84;;;-2.73;75.65
71697;BME280;68167;59.120;37.898;2024-02-23T00:44:03;100126.03;;;-3.08;75.56
71697;BME280;68167;59.120;37.898;2024-02-23T00:46:29;100194.78;;;-2.69;75.94
71697;BME280;68167;59.120;37.898;2024-02-23T00:48:56;100160.56;;;-2.90;75.88
71697;BME280;68167;59.120;37.898;2024-02-23T00:51:22;100204.56;;;-2.71;76.36
71697;BME280;68167;59.120;37.898;2024-02-23T00:53:49;100130.44;;;-3.09;75.87
71697;BME280;68167;59.120;37.898;2024-02-23T00:56:15;100122.94;;;-3.12;75.92
71697;BME280;68167;59.120;37.898;2024-02-23T00:58:43;100187.63;;;-2.75;75.92
71697;BME280;68167;59.120;37.898;2024-02-23T01:01:09;100132.88;;;-3.07;75.85
71697;BME280;68167;59.120;37.898;2024-02-23T01:03:35;100200.47;;;-2.73;76.13
71697;BME280;68167;59.120;37.898;2024-02-23T01:06:02;100049.16;;;-3.61;75.99
71697;BME280;68167;59.120;37.898;2024-02-23T01:08:28;100194.28;;;-2.72;75.65
71697;BME280;68167;59.120;37.898;2024-02-23T01:10:54;100185.00;;;-2.83;75.81
71697;BME280;68167;59.120;37.898;2024-02-23T01:13:21;100224.91;;;-2.58;75.77
71697;BME280;68167;59.120;37.898;2024-02-23T01:15:47;100145.75;;;-2.89;75.28
71697;BME280;68167;59.120;37.898;2024-02-23T01:18:13;100118.88;;;-3.06;75.34
71697;BME280;68167;59.120;37.898;2024-02-23T01:20:40;100173.63;;;-2.74;75.69
71697;BME280;68167;59.120;37.898;2024-02-23T01:23:06;100176.06;;;-2.72;75.60
71697;BME280;68167;59.120;37.898;2024-02-23T01:25:32;100196.41;;;-2.68;75.73
71697;BME280;68167;59.120;37.898;2024-02-23T01:28:01;100127.47;;;-3.14;75.85
71697;BME280;68167;59.120;37.898;2024-02-23T01:30:27;100144.59;;;-3.03;75.79
71697;BME280;68167;59.120;37.898;2024-02-23T01:32:53;100186.31;;;-2.79;75.71
71697;BME280;68167;59.120;37.898;2024-02-23T01:35:19;100207.31;;;-2.72;75.89
71697;BME280;68167;59.120;37.898;2024-02-23T01:37:46;100186.31;;;-2.79;75.74
71697;BME280;68167;59.120;37.898;2024-02-23T01:40:12;100202.09;;;-2.80;75.77
71697;BME280;68167;59.120;37.898;2024-02-23T01:42:39;100183.22;;;-2.82;76.06
71697;BME280;68167;59.120;37.898;2024-02-23T01:45:05;100124.69;;;-3.20;75.72
71697;BME280;68167;59.120;37.898;2024-02-23T01:47:32;100196.56;;;-2.77;75.87
71697;BME280;68167;59.120;37.898;2024-02-23T01:49:59;100203.41;;;-2.76;75.87
71697;BME280;68167;59.120;37.898;2024-02-23T01:52:25;100163.78;;;-3.04;75.91
71697;BME280;68167;59.120;37.898;2024-02-23T01:54:53;100207.31;;;-2.72;76.04
71697;BME280;68167;59.120;37.898;2024-02-23T01:57:21;100100.63;;;-3.39;75.76
71697;BME280;68167;59.120;37.898;2024-02-23T01:59:48;100207.31;;;-2.80;75.85
71697;BME280;68167;59.120;37.898;2024-02-23T02:02:15;100180.28;;;-2.87;75.92
71697;BME280;68167;59.120;37.898;2024-02-23T02:04:42;100210.75;;;-2.72;76.10
71697;BME280;68167;59.120;37.898;2024-02-23T02:07:09;100175.03;;;-2.95;75.78
71697;BME280;68167;59.120;37.898;2024-02-23T02:09:35;100195.25;;;-2.89;75.78
71697;BME280;68167;59.120;37.898;2024-02-23T02:12:01;100226.34;;;-2.80;75.97
71697;BME280;68167;59.120;37.898;2024-02-23T02:14:28;100200.94;;;-2.86;75.97
71697;BME280;68167;59.120;37.898;2024-02-23T02:16:57;100205.00;;;-2.91;75.62
71697;BME280;68167;59.120;37.898;2024-02-23T02:19:23;100131.84;;;-3.39;76.00
71697;BME280;68167;59.120;37.898;2024-02-23T02:21:50;100194.25;;;-2.96;76.00
71697;BME280;68167;59.120;37.898;2024-02-23T02:24:16;100178.09;;;-3.08;75.94
71697;BME280;68167;59.120;37.898;2024-02-23T02:26:43;100200.44;;;-2.97;75.49
71697;BME280;68167;59.120;37.898;2024-02-23T02:29:11;100186.25;;;-3.03;76.29
71697;BME280;68167;59.120;37.898;2024-02-23T02:31:37;100135.94;;;-3.28;75.85
71697;BME280;68167;59.120;37.898;2024-02-23T02:34:04;100210.19;;;-2.91;76.08
71697;BME280;68167;59.120;37.898;2024-02-23T02:36:31;100213.31;;;-2.88;76.14
71697;BME280;68167;59.120;37.898;2024-02-23T02:38:57;100173.72;;;-3.08;76.25
71697;BME280;68167;59.120;37.898;2024-02-23T02:41:28;100207.94;;;-2.86;76.18
71697;BME280;68167;59.120;37.898;2024-02-23T02:43:55;100212.50;;;-2.88;76.09
71697;BME280;68167;59.120;37.898;2024-02-23T02:46:22;100203.19;;;-2.99;75.82
71697;BME280;68167;59.120;37.898;2024-02-23T02:48:48;100076.59;;;-3.75;76.31
71697;BME280;68167;59.120;37.898;2024-02-23T02:51:14;100213.16;;;-2.86;76.15
71697;BME280;68167;59.120;37.898;2024-02-23T02:53:40;100122.88;;;-3.44;76.00
71697;BME280;68167;59.120;37.898;2024-02-23T02:56:07;100203.53;;;-2.94;76.26
71697;BME280;68167;59.120;37.898;2024-02-23T02:58:33;100213.47;;;-2.89;76.03
71697;BME280;68167;59.120;37.898;2024-02-23T03:00:59;100187.53;;;-3.07;76.55
71697;BME280;68167;59.120;37.898;2024-02-23T03:03:26;100152.84;;;-3.24;76.02
71697;BME280;68167;59.120;37.898;2024-02-23T03:05:52;100166.19;;;-3.19;76.09
71697;BME280;68167;59.120;37.898;2024-02-23T03:08:18;100218.03;;;-2.83;76.38
71697;BME280;68167;59.120;37.898;2024-02-23T03:10:44;100213.50;;;-2.81;75.93
71697;BME280;68167;59.120;37.898;2024-02-23T03:13:11;100194.56;;;-3.00;76.15
71697;BME280;68167;59.120;37.898;2024-02-23T03:15:37;100160.00;;;-3.18;76.42
71697;BME280;68167;59.120;37.898;2024-02-23T03:18:03;100207.94;;;-2.86;76.49
71697;BME280;68167;59.120;37.898;2024-02-23T03:20:30;100193.94;;;-2.93;76.11
71697;BME280;68167;59.120;37.898;2024-02-23T03:22:56;100216.25;;;-2.83;76.47
71697;BME280;68167;59.120;37.898;2024-02-23T03:25:22;100211.03;;;-2.83;76.05
71697;BME280;68167;59.120;37.898;2024-02-23T03:27:49;100126.31;;;-3.36;76.18
71697;BME280;68167;59.120;37.898;2024-02-23T03:30:15;100152.84;;;-3.24;76.05
71697;BME280;68167;59.120;37.898;2024-02-23T03:32:41;100218.06;;;-2.75;76.02
71697;BME280;68167;59.120;37.898;2024-02-23T03:35:08;100212.50;;;-2.80;76.18
71697;BME280;68167;59.120;37.898;2024-02-23T03:37:35;100124.06;;;-3.30;76.07
71697;BME280;68167;59.120;37.898;2024-02-23T03:40:01;100209.56;;;-2.85;75.88
71697;BME280;68167;59.120;37.898;2024-02-23T03:42:28;100132.19;;;-3.34;75.85
71697;BME280;68167;59.120;37.898;2024-02-23T03:44:54;100209.41;;;-2.84;75.94
71697;BME280;68167;59.120;37.898;2024-02-23T03:47:21;100089.16;;;-3.62;75.91
71697;BME280;68167;59.120;37.898;2024-02-23T03:49:47;100127.78;;;-3.33;76.13
71697;BME280;68167;59.120;37.898;2024-02-23T03:52:13;100195.56;;;-2.92;75.99
71697;BME280;68167;59.120;37.898;2024-02-23T03:54:39;100147.81;;;-3.17;76.19
71697;BME280;68167;59.120;37.898;2024-02-23T03:57:06;100080.38;;;-3.61;75.78
71697;BME280;68167;59.120;37.898;2024-02-23T03:59:32;100179.91;;;-3.01;76.31
71697;BME280;68167;59.120;37.898;2024-02-23T04:01:59;100130.22;;;-3.40;76.43
71697;BME280;68167;59.120;37.898;2024-02-23T04:04:25;100170.13;;;-3.07;76.29
71697;BME280;68167;59.120;37.898;2024-02-23T04:06:51;100198.16;;;-2.92;76.19
71697;BME280;68167;59.120;37.898;2024-02-23T04:09:17;100215.59;;;-2.85;76.35
71697;BME280;68167;59.120;37.898;2024-02-23T04:11:47;100121.41;;;-3.47;76.29
71697;BME280;68167;59.120;37.898;2024-02-23T04:14:13;100138.34;;;-3.35;76.27
71697;BME280;68167;59.120;37.898;2024-02-23T04:16:39;100109.19;;;-3.54;76.37
71697;BME280;68167;59.120;37.898;2024-02-23T04:19:06;100191.63;;;-3.05;76.60
71697;BME280;68167;59.120;37.898;2024-02-23T04:21:32;100200.75;;;-3.01;76.43
71697;BME280;68167;59.120;37.898;2024-02-23T04:23:58;100219.34;;;-2.87;76.60
71697;BME280;68167;59.120;37.898;2024-02-23T04:26:24;100149.41;;;-3.24;76.51
71697;BME280;68167;59.120;37.898;2024-02-23T04:28:51;100206.28;;;-2.95;76.40
71697;BME280;68167;59.120;37.898;2024-02-23T04:31:17;100194.41;;;-2.98;76.55
71697;BME280;68167;59.120;37.898;2024-02-23T04:33:43;100207.91;;;-2.94;76.57
71697;BME280;68167;59.120;37.898;2024-02-23T04:36:09;100161.97;;;-3.20;76.37
71697;BME280;68167;59.120;37.898;2024-02-23T04:38:36;100195.06;;;-2.96;76.12
71697;BME280;68167;59.120;37.898;2024-02-23T04:41:03;100205.50;;;-2.88;76.48
71697;BME280;68167;59.120;37.898;2024-02-23T04:43:33;100209.06;;;-2.89;76.47
71697;BME280;68167;59.120;37.898;2024-02-23T04:45:59;100196.38;;;-2.92;76.14
71697;BME280;68167;59.120;37.898;2024-02-23T04:48:25;100207.47;;;-2.82;76.48
71697;BME280;68167;59.120;37.898;2024-02-23T04:50:52;100121.09;;;-3.44;76.69
71697;BME280;68167;59.120;37.898;2024-02-23T04:53:18;100145.19;;;-3.34;76.79
71697;BME280;68167;59.120;37.898;2024-02-23T04:55:45;100079.22;;;-3.67;76.54
71697;BME280;68167;59.120;37.898;2024-02-23T04:58:11;100205.47;;;-2.96;76.56
71697;BME280;68167;59.120;37.898;2024-02-23T05:00:38;100086.22;;;-3.67;76.48
71697;BME280;68167;59.120;37.898;2024-02-23T05:03:05;100235.63;;;-2.77;76.83
71697;BME280;68167;59.120;37.898;2024-02-23T05:05:32;100141.16;;;-3.28;76.69
71697;BME280;68167;59.120;37.898;2024-02-23T05:07:58;100234.19;;;-2.72;76.48
71697;BME280;68167;59.120;37.898;2024-02-23T05:10:25;100207.78;;;-2.85;76.79
71697;BME280;68167;59.120;37.898;2024-02-23T05:12:52;100138.69;;;-3.29;76.73
71697;BME280;68167;59.120;37.898;2024-02-23T05:15:18;100205.84;;;-2.83;76.42
71697;BME280;68167;59.120;37.898;2024-02-23T05:17:44;100217.41;;;-2.77;76.87
71697;BME280;68167;59.120;37.898;2024-02-23T05:20:11;100049.09;;;-3.85;76.62
71697;BME280;68167;59.120;37.898;2024-02-23T05:22:39;100198.16;;;-2.92;76.79
71697;BME280;68167;59.120;37.898;2024-02-23T05:25:06;100146.84;;;-3.16;76.54
71697;BME280;68167;59.120;37.898;2024-02-23T05:27:32;100221.16;;;-2.72;76.66
71697;BME280;68167;59.120;37.898;2024-02-23T05:29:58;100226.22;;;-2.70;76.70
71697;BME280;68167;59.120;37.898;2024-02-23T05:32:25;100241.34;;;-2.57;76.85
71697;BME280;68167;59.120;37.898;2024-02-23T05:34:51;100208.94;;;-2.71;76.88
71697;BME280;68167;59.120;37.898;2024-02-23T05:37:19;100218.25;;;-2.60;76.61
71697;BME280;68167;59.120;37.898;2024-02-23T05:39:49;100226.06;;;-2.52;76.84
71697;BME280;68167;59.120;37.898;2024-02-23T05:42:22;100150.16;;;-2.90;76.67
71697;BME280;68167;59.120;37.898;2024-02-23T05:44:48;100210.25;;;-2.51;76.47
71697;BME280;68167;59.120;37.898;2024-02-23T05:47:14;100201.16;;;-2.63;76.55
71697;BME280;68167;59.120;37.898;2024-02-23T05:49:41;100207.81;;;-2.60;76.20
71697;BME280;68167;59.120;37.898;2024-02-23T05:52:09;100200.97;;;-2.53;76.55
71697;BME280;68167;59.120;37.898;2024-02-23T05:54:35;100179.81;;;-2.67;76.63
71697;BME280;68167;59.120;37.898;2024-02-23T05:57:02;100194.47;;;-2.49;76.57
71697;BME280;68167;59.120;37.898;2024-02-23T05:59:31;100196.25;;;-2.50;76.61
71697;BME280;68167;59.120;37.898;2024-02-23T06:01:57;100119.69;;;-3.06;76.44
71697;BME280;68167;59.120;37.898;2024-02-23T06:04:27;100199.66;;;-2.49;76.62
71697;BME280;68167;59.120;37.898;2024-02-23T06:06:54;100217.28;;;-2.43;76.15
71697;BME280;68167;59.120;37.898;2024-02-23T06:09:24;100126.69;;;-2.98;76.29
71697;BME280;68167;59.120;37.898;2024-02-23T06:11:56;100098.69;;;-3.20;76.11
71697;BME280;68167;59.120;37.898;2024-02-23T06:14:22;100074.72;;;-3.48;76.21
71697;BME280;68167;59.120;37.898;2024-02-23T06:16:52;100231.28;;;-2.36;76.42
71697;BME280;68167;59.120;37.898;2024-02-23T06:19:18;100225.56;;;-2.48;76.37
71697;BME280;68167;59.120;37.898;2024-02-23T06:21:48;100214.66;;;-2.43;76.42
71697;BME280;68167;59.120;37.898;2024-02-23T06:24:17;100204.22;;;-2.51;76.52
71697;BME280;68167;59.120;37.898;2024-02-23T06:26:43;100193.47;;;-2.56;76.34
71697;BME280;68167;59.120;37.898;2024-02-23T06:29:13;100211.06;;;-2.42;76.38
71697;BME280;68167;59.120;37.898;2024-02-23T06:31:40;100183.88;;;-2.64;76.58
71697;BME280;68167;59.120;37.898;2024-02-23T06:34:08;100248.41;;;-2.17;76.20
71697;BME280;68167;59.120;37.898;2024-02-23T06:36:35;100179.50;;;-2.63;76.02
71697;BME280;68167;59.120;37.898;2024-02-23T06:39:04;100264.22;;;-2.11;76.40
71697;BME280;68167;59.120;37.898;2024-02-23T06:41:38;100240.25;;;-2.22;76.24
71697;BME280;68167;59.120;37.898;2024-02-23T06:44:07;100164.50;;;-2.70;76.55
71697;BME280;68167;59.120;37.898;2024-02-23T06:46:33;100256.88;;;-2.07;76.37
71697;BME280;68167;59.120;37.898;2024-02-23T06:48:59;100255.09;;;-2.07;76.35
71697;BME280;68167;59.120;37.898;2024-02-23T06:51:32;100177.84;;;-2.56;76.19
71697;BME280;68167;59.120;37.898;2024-02-23T06:53:58;100230.63;;;-2.22;75.92
71697;BME280;68167;59.120;37.898;2024-02-23T06:56:24;100150.34;;;-2.67;76.11
71697;BME280;68167;59.120;37.898;2024-02-23T06:58:53;100221.19;;;-2.31;76.21
71697;BME280;68167;59.120;37.898;2024-02-23T07:01:20;100178.66;;;-2.56;76.14
71697;BME280;68167;59.120;37.898;2024-02-23T07:03:46;100208.16;;;-2.39;76.16
71697;BME280;68167;59.120;37.898;2024-02-23T07:06:15;100179.63;;;-2.49;76.11
71697;BME280;68167;59.120;37.898;2024-02-23T07:08:44;100244.66;;;-2.15;76.00
71697;BME280;68167;59.120;37.898;2024-02-23T07:11:12;100256.06;;;-2.08;75.89
71697;BME280;68167;59.120;37.898;2024-02-23T07:13:38;100197.22;;;-2.43;76.27
71697;BME280;68167;59.120;37.898;2024-02-23T07:16:05;100253.94;;;-2.04;76.27
71697;BME280;68167;59.120;37.898;2024-02-23T07:18:31;100253.63;;;-2.09;76.21
71697;BME280;68167;59.120;37.898;2024-02-23T07:20:58;100167.91;;;-2.53;76.17
71697;BME280;68167;59.120;37.898;2024-02-23T07:23:24;100136.50;;;-2.76;76.34
71697;BME280;68167;59.120;37.898;2024-02-23T07:25:51;100248.56;;;-2.03;76.49
71697;BME280;68167;59.120;37.898;2024-02-23T07:28:17;100232.44;;;-2.06;76.30
71697;BME280;68167;59.120;37.898;2024-02-23T07:30:45;100225.44;;;-2.14;76.09
71697;BME280;68167;59.120;37.898;2024-02-23T07:33:12;100277.88;;;-1.84;76.51
71697;BME280;68167;59.120;37.898;2024-02-23T07:35:39;100284.41;;;-1.72;76.00
71697;BME280;68167;59.120;37.898;2024-02-23T07:38:05;100269.06;;;-1.75;76.19
71697;BME280;68167;59.120;37.898;2024-02-23T07:40:31;100287.66;;;-1.62;76.24
71697;BME280;68167;59.120;37.898;2024-02-23T07:42:58;100274.75;;;-1.63;76.41
71697;BME280;68167;59.120;37.898;2024-02-23T07:45:24;100214.81;;;-1.96;76.38
71697;BME280;68167;59.120;37.898;2024-02-23T07:47:51;100238.91;;;-1.86;76.15
71697;BME280;68167;59.120;37.898;2024-02-23T07:50:18;100131.75;;;-2.40;76.01
71697;BME280;68167;59.120;37.898;2024-02-23T07:52:45;100215.97;;;-1.98;75.70
71697;BME280;68167;59.120;37.898;2024-02-23T07:55:12;100270.69;;;-1.58;76.37
71697;BME280;68167;59.120;37.898;2024-02-23T07:57:38;100258.13;;;-1.62;75.96
71697;BME280;68167;59.120;37.898;2024-02-23T08:00:06;100248.66;;;-1.63;75.64
71697;BME280;68167;59.120;37.898;2024-02-23T08:02:39;100274.56;;;-1.46;76.04
71697;BME280;68167;59.120;37.898;2024-02-23T08:05:06;100272.78;;;-1.45;75.97
71697;BME280;68167;59.120;37.898;2024-02-23T08:07:33;100274.72;;;-1.39;75.70
71697;BME280;68167;59.120;37.898;2024-02-23T08:09:59;100218.03;;;-1.70;75.49
71697;BME280;68167;59.120;37.898;2024-02-23T08:12:26;100223.56;;;-1.73;75.44
71697;BME280;68167;59.120;37.898;2024-02-23T08:14:52;100225.03;;;-1.70;75.45
71697;BME280;68167;59.120;37.898;2024-02-23T08:17:19;100296.19;;;-1.21;75.95
71697;BME280;68167;59.120;37.898;2024-02-23T08:19:46;100277.81;;;-1.36;75.65
71697;BME280;68167;59.120;37.898;2024-02-23T08:22:12;100296.03;;;-1.27;75.67
71697;BME280;68167;59.120;37.898;2024-02-23T08:24:38;100257.44;;;-1.48;75.16
71697;BME280;68167;59.120;37.898;2024-02-23T08:27:05;100259.25;;;-1.49;75.43
71697;BME280;68167;59.120;37.898;2024-02-23T08:29:31;100229.91;;;-1.59;75.56
71697;BME280;68167;59.120;37.898;2024-02-23T08:31:57;100305.31;;;-1.17;75.64
71697;BME280;68167;59.120;37.898;2024-02-23T08:34:23;100294.06;;;-1.25;75.39
71697;BME280;68167;59.120;37.898;2024-02-23T08:36:51;100269.03;;;-1.43;75.45
71697;BME280;68167;59.120;37.898;2024-02-23T08:39:17;100257.13;;;-1.45;75.50
71697;BME280;68167;59.120;37.898;2024-02-23T08:41:43;100237.22;;;-1.54;75.15
71697;BME280;68167;59.120;37.898;2024-02-23T08:44:09;100301.38;;;-1.13;75.33
71697;BME280;68167;59.120;37.898;2024-02-23T08:46:35;100304.66;;;-1.11;75.35
71697;BME280;68167;59.120;37.898;2024-02-23T08:49:05;100242.59;;;-1.40;75.03
71697;BME280;68167;59.120;37.898;2024-02-23T08:51:31;100295.44;;;-0.90;75.34
71697;BME280;68167;59.120;37.898;2024-02-23T08:53:58;100217.47;;;-1.41;75.27
71697;BME280;68167;59.120;37.898;2024-02-23T08:56:29;100309.13;;;-0.80;75.14
71697;BME280;68167;59.120;37.898;2024-02-23T08:58:55;100278.59;;;-0.88;75.31
71697;BME280;68167;59.120;37.898;2024-02-23T09:01:21;100312.34;;;-0.70;75.14
71697;BME280;68167;59.120;37.898;2024-02-23T09:03:48;100243.59;;;-1.10;74.89
71697;BME280;68167;59.120;37.898;2024-02-23T09:06:14;100281.69;;;-0.84;75.28
71697;BME280;68167;59.120;37.898;2024-02-23T09:08:40;100242.78;;;-1.10;75.33
71697;BME280;68167;59.120;37.898;2024-02-23T09:11:07;100268.00;;;-0.86;75.18
71697;BME280;68167;59.120;37.898;2024-02-23T09:13:33;100287.75;;;-0.61;74.54
71697;BME280;68167;59.120;37.898;2024-02-23T09:16:08;100200.31;;;-1.04;74.74
71697;BME280;68167;59.120;37.898;2024-02-23T09:18:35;100213.00;;;-0.93;74.53
71697;BME280;68167;59.120;37.898;2024-02-23T09:21:02;100275.00;;;-0.56;75.06
71697;BME280;68167;59.120;37.898;2024-02-23T09:23:31;100293.63;;;-0.59;74.74
71697;BME280;68167;59.120;37.898;2024-02-23T09:25:59;100299.34;;;-0.55;74.82
71697;BME280;68167;59.120;37.898;2024-02-23T09:28:25;100289.81;;;-0.48;74.80
71697;BME280;68167;59.120;37.898;2024-02-23T09:30:51;100278.03;;;-0.67;74.26
71697;BME280;68167;59.120;37.898;2024-02-23T09:33:17;100287.59;;;-0.59;74.37
71697;BME280;68167;59.120;37.898;2024-02-23T09:35:44;100304.41;;;-0.54;74.31
71697;BME280;68167;59.120;37.898;2024-02-23T09:38:10;100298.66;;;-0.49;74.30
71697;BME280;68167;59.120;37.898;2024-02-23T09:40:36;100302.03;;;-0.41;74.45
71697;BME280;68167;59.120;37.898;2024-02-23T09:43:07;100257.00;;;-0.74;73.78
71697;BME280;68167;59.120;37.898;2024-02-23T09:45:35;100300.16;;;-0.55;74.04
71697;BME280;68167;59.120;37.898;2024-02-23T09:48:02;100212.84;;;-1.00;74.23
71697;BME280;68167;59.120;37.898;2024-02-23T09:50:29;100282.16;;;-0.50;74.64
71697;BME280;68167;59.120;37.898;2024-02-23T09:52:58;100281.69;;;-0.53;74.29
71697;BME280;68167;59.120;37.898;2024-02-23T09:55:25;100210.25;;;-1.00;74.33
71697;BME280;68167;59.120;37.898;2024-02-23T09:57:52;100235.66;;;-0.85;74.56
71697;BME280;68167;59.120;37.898;2024-02-23T10:00:23;100271.91;;;-0.59;73.96
71697;BME280;68167;59.120;37.898;2024-02-23T10:02:50;100228.84;;;-0.94;74.07
71697;BME280;68167;59.120;37.898;2024-02-23T10:05:16;100283.34;;;-0.60;74.01
71697;BME280;68167;59.120;37.898;2024-02-23T10:07:43;100248.53;;;-0.84;73.90
71697;BME280;68167;59.120;37.898;2024-02-23T10:10:10;100198.06;;;-1.15;74.22
71697;BME280;68167;59.120;37.898;2024-02-23T10:12:39;100302.75;;;-0.55;74.51
71697;BME280;68167;59.120;37.898;2024-02-23T10:15:06;100284.88;;;-0.66;73.94
71697;BME280;68167;59.120;37.898;2024-02-23T10:17:32;100288.91;;;-0.63;74.62
71697;BME280;68167;59.120;37.898;2024-02-23T10:19:59;100182.34;;;-1.30;74.47
71697;BME280;68167;59.120;37.898;2024-02-23T10:22:25;100264.88;;;-0.82;74.96
71697;BME280;68167;59.120;37.898;2024-02-23T10:24:54;100315.78;;;-0.47;74.67
71697;BME280;68167;59.120;37.898;2024-02-23T10:27:21;100303.88;;;-0.49;74.55
71697;BME280;68167;59.120;37.898;2024-02-23T10:29:51;100283.19;;;-0.59;74.86
71697;BME280;68167;59.120;37.898;2024-02-23T10:32:19;100267.41;;;-0.65;74.60
71697;BME280;68167;59.120;37.898;2024-02-23T10:34:52;100308.25;;;-0.42;74.33
71697;BME280;68167;59.120;37.898;2024-02-23T10:37:18;100240.41;;;-0.89;74.65
71697;BME280;68167;59.120;37.898;2024-02-23T10:39:45;100276.06;;;-0.65;74.29
71697;BME280;68167;59.120;37.898;2024-02-23T10:42:12;100237.53;;;-1.02;74.65
71697;BME280;68167;59.120;37.898;2024-02-23T10:44:39;100298.47;;;-0.48;74.74
71697;BME280;68167;59.120;37.898;2024-02-23T10:47:08;100313.59;;;-0.35;74.82
71697;BME280;68167;59.120;37.898;2024-02-23T10:49:38;100282.38;;;-0.59;74.48
71697;BME280;68167;59.120;37.898;2024-02-23T10:52:09;100310.38;;;-0.45;74.20
71697;BME280;68167;59.120;37.898;2024-02-23T10:54:38;100224.28;;;-1.01;74.62
71697;BME280;68167;59.120;37.898;2024-02-23T10:57:05;100232.94;;;-1.00;74.73
71697;BME280;68167;59.120;37.898;2024-02-23T10:59:32;100247.47;;;-0.97;74.65
71697;BME280;68167;59.120;37.898;2024-02-23T11:02:00;100329.81;;;-0.40;74.51
71697;BME280;68167;59.120;37.898;2024-02-23T11:04:27;100225.44;;;-1.03;74.79
71697;BME280;68167;59.120;37.898;2024-02-23T11:06:55;100265.69;;;-0.81;74.87
71697;BME280;68167;59.120;37.898;2024-02-23T11:09:24;100300.66;;;-0.59;74.86
71697;BME280;68167;59.120;37.898;2024-02-23T11:11:58;100322.31;;;-0.43;74.89
71697;BME280;68167;59.120;37.898;2024-02-23T11:14:38;100311.06;;;-0.51;74.47
71697;BME280;68167;59.120;37.898;2024-02-23T11:17:05;100312.09;;;-0.60;74.43
71697;BME280;68167;59.120;37.898;2024-02-23T11:19:32;100328.25;;;-0.57;74.87
71697;BME280;68167;59.120;37.898;2024-02-23T11:22:00;100306.59;;;-0.65;74.75
71697;BME280;68167;59.120;37.898;2024-02-23T11:24:30;100316.34;;;-0.59;75.00
71697;BME280;68167;59.120;37.898;2024-02-23T11:27:01;100353.34;;;-0.40;75.18
71697;BME280;68167;59.120;37.898;2024-02-23T11:29:34;100316.47;;;-0.53;74.76
71697;BME280;68167;59.120;37.898;2024-02-23T11:32:02;100213.47;;;-1.28;74.51
71697;BME280;68167;59.120;37.898;2024-02-23T11:34:30;100303.34;;;-0.68;74.43
71697;BME280;68167;59.120;37.898;2024-02-23T11:36:56;100346.66;;;-0.42;74.69
71697;BME280;68167;59.120;37.898;2024-02-23T11:39:28;100261.84;;;-1.02;74.83
71697;BME280;68167;59.120;37.898;2024-02-23T11:41:59;100338.50;;;-0.47;74.92
71697;BME280;68167;59.120;37.898;2024-02-23T11:44:26;100310.13;;;-0.58;74.79
71697;BME280;68167;59.120;37.898;2024-02-23T11:46:52;100315.84;;;-0.55;74.83
71697;BME280;68167;59.120;37.898;2024-02-23T11:49:29;100275.84;;;-0.63;75.01
71697;BME280;68167;59.120;37.898;2024-02-23T11:51:56;100330.72;;;-0.24;74.60
71697;BME280;68167;59.120;37.898;2024-02-23T11:54:22;100320.72;;;-0.21;74.07
71697;BME280;68167;59.120;37.898;2024-02-23T11:56:49;100196.41;;;-1.08;74.35
71697;BME280;68167;59.120;37.898;2024-02-23T11:59:20;100294.38;;;-0.19;74.87
71697;BME280;68167;59.120;37.898;2024-02-23T12:01:46;100278.16;;;-0.15;74.63
71697;BME280;68167;59.120;37.898;2024-02-23T12:04:15;100304.28;;;0.31;74.46
71697;BME280;68167;59.120;37.898;2024-02-23T12:06:42;100310.88;;;0.42;74.34
71697;BME280;68167;59.120;37.898;2024-02-23T12:09:09;100335.31;;;0.57;74.25
71697;BME280;68167;59.120;37.898;2024-02-23T12:11:36;100224.03;;;-0.14;73.42
71697;BME280;68167;59.120;37.898;2024-02-23T12:14:02;100255.72;;;-0.09;73.62
71697;BME280;68167;59.120;37.898;2024-02-23T12:16:34;100248.50;;;-0.07;73.87
71697;BME280;68167;59.120;37.898;2024-02-23T12:19:04;100331.72;;;0.35;73.10
71697;BME280;68167;59.120;37.898;2024-02-23T12:21:33;100239.50;;;-0.27;73.33
71697;BME280;68167;59.120;37.898;2024-02-23T12:24:04;100312.38;;;0.21;73.34
71697;BME280;68167;59.120;37.898;2024-02-23T12:26:32;100259.56;;;-0.20;73.27
71697;BME280;68167;59.120;37.898;2024-02-23T12:29:02;100241.31;;;-0.28;73.58
71697;BME280;68167;59.120;37.898;2024-02-23T12:31:31;100322.38;;;0.18;73.73
71697;BME280;68167;59.120;37.898;2024-02-23T12:33:58;100166.63;;;-0.68;73.43
71697;BME280;68167;59.120;37.898;2024-02-23T12:36:24;100248.53;;;-0.30;73.62
71697;BME280;68167;59.120;37.898;2024-02-23T12:38:51;100307.38;;;0.12;73.86